Earlsboro, Oklahoma
Current Conditions -  °F | °C
As of 9:15 PM on Monday 20 Oct 2014 (Local Time) from KCQB Reporting Station
Clear Clear  
Wind Chill: 70°   Ceiling: Unl
Heat Index: 70°   Visibility: 10mi
Dew Point: 66°   Wind: 8mph
Humidity: 88%   Direction: 100°E
Pressure: 30.05"   Gusts: NA
Location:  35.27°N, 96.8°W
Report Text: KCQB 210215Z AUTO 10007KT 10SM CLR 21/19 A3005 RMK AO2
Loading
Personal Weather Stations






























Interactive Weather Map
Tropical Storm Tracking
New forecast layout! Learn more

10-Day Weather Forecast

Advertisements
Track Severe Weather on mobile